createdAt,value
2023-04-13T00:02:39.996Z,16.90
2023-04-13T00:07:43.754Z,16.60
2023-04-13T00:12:48.044Z,17.80
2023-04-13T00:17:51.724Z,17.40
2023-04-13T00:22:55.428Z,17.70
2023-04-13T00:28:03.770Z,16.70
2023-04-13T00:33:07.601Z,15.20
2023-04-13T00:38:11.921Z,17.90
2023-04-13T00:43:16.813Z,17.60
2023-04-13T00:48:20.993Z,18.10
2023-04-13T00:53:24.619Z,17.50
2023-04-13T00:58:28.433Z,20.50
2023-04-13T01:03:31.817Z,18.10
2023-04-13T01:08:40.891Z,18.10
2023-04-13T01:14:24.758Z,18.00
2023-04-13T01:19:28.168Z,17.80
2023-04-13T01:24:43.363Z,17.40
2023-04-13T01:29:48.675Z,18.60
2023-04-13T01:34:52.231Z,16.90
2023-04-13T01:39:55.646Z,22.10
2023-04-13T01:44:59.159Z,21.30
2023-04-13T01:50:16.093Z,20.90
2023-04-13T01:55:20.018Z,18.60
2023-04-13T02:00:23.430Z,20.70
2023-04-13T02:05:27.721Z,20.10
2023-04-13T02:10:35.119Z,19.40
2023-04-13T02:15:38.800Z,20.20
2023-04-13T02:20:45.300Z,18.30
2023-04-13T02:25:48.993Z,15.70
2023-04-13T02:30:52.820Z,15.80
2023-04-13T02:35:56.231Z,16.50
2023-04-13T02:41:00.891Z,16.70
2023-04-13T02:46:04.661Z,14.20
2023-04-13T02:51:08.434Z,17.80
2023-04-13T02:56:11.828Z,18.50
2023-04-13T03:01:15.412Z,19.10
2023-04-13T03:06:18.982Z,19.60
2023-04-13T03:11:23.858Z,22.00
2023-04-13T03:16:28.525Z,20.00
2023-04-13T03:21:34.736Z,22.10
2023-04-13T03:26:38.345Z,23.30
2023-04-13T03:31:41.845Z,23.00
2023-04-13T03:36:46.197Z,20.60
2023-04-13T03:41:49.615Z,20.60
2023-04-13T03:46:53.025Z,20.90
2023-04-13T03:51:57.673Z,21.40
2023-04-13T03:57:02.513Z,20.70
2023-04-13T04:02:05.958Z,20.30
2023-04-13T04:07:09.447Z,22.00
2023-04-13T04:12:14.648Z,21.20
2023-04-13T04:17:18.114Z,19.50
2023-04-13T04:22:21.525Z,20.80
2023-04-13T04:27:26.585Z,18.90
2023-04-13T04:32:29.907Z,21.50
2023-04-13T04:37:37.850Z,15.00
2023-04-13T04:42:41.626Z,17.00
2023-04-13T04:47:45.434Z,17.20
2023-04-13T04:52:48.992Z,15.20
2023-04-13T04:57:52.387Z,15.20
2023-04-13T05:02:56.055Z,15.30
2023-04-13T05:08:00.575Z,14.90
2023-04-13T05:13:04.077Z,13.80
2023-04-13T05:18:07.572Z,13.60
2023-04-13T05:23:11.043Z,14.80
2023-04-13T05:28:14.912Z,15.30
2023-04-13T05:33:18.426Z,13.30
2023-04-13T05:38:22.963Z,14.90
2023-04-13T05:43:27.411Z,11.80
2023-04-13T05:48:34.121Z,14.50
2023-04-13T05:53:37.810Z,13.50
2023-04-13T05:58:41.426Z,14.50
2023-04-13T06:03:45.351Z,15.40
2023-04-13T06:08:49.787Z,14.10
2023-04-13T06:13:53.200Z,14.70
2023-04-13T06:18:56.950Z,14.00
2023-04-13T06:24:00.646Z,16.10
2023-04-13T06:29:04.258Z,10.90
2023-04-13T06:34:07.778Z,12.90
2023-04-13T06:39:11.912Z,13.30
2023-04-13T06:44:15.419Z,13.40
2023-04-13T06:49:18.940Z,12.30
2023-04-13T06:54:22.452Z,12.00
2023-04-13T06:59:26.293Z,12.50
2023-04-13T07:04:32.367Z,10.90
2023-04-13T07:09:37.416Z,11.10
2023-04-13T07:14:42.159Z,13.00
2023-04-13T07:19:48.071Z,11.40
2023-04-13T07:24:51.639Z,12.10
2023-04-13T07:29:55.879Z,12.10
2023-04-13T07:40:07.056Z,10.80
2023-04-13T07:45:15.734Z,9.30
2023-04-13T07:50:19.562Z,11.10
2023-04-13T07:55:23.285Z,10.80
2023-04-13T08:00:27.407Z,12.40
2023-04-13T08:05:30.888Z,12.90
2023-04-13T08:10:35.970Z,12.10
2023-04-13T08:15:39.284Z,11.60
2023-04-13T08:20:42.803Z,9.20
2023-04-13T08:25:47.545Z,7.80
2023-04-13T08:30:51.165Z,8.80
2023-04-13T08:35:54.684Z,8.70
2023-04-13T08:40:59.232Z,8.80
2023-04-13T08:46:09.035Z,7.10
2023-04-13T08:51:14.337Z,7.70
2023-04-13T08:56:17.852Z,9.40
2023-04-13T09:01:23.018Z,9.10
2023-04-13T09:06:35.965Z,14.70
2023-04-13T09:11:39.661Z,8.10
2023-04-13T09:16:44.044Z,8.20
2023-04-13T09:21:48.952Z,7.60
2023-04-13T09:26:52.778Z,6.90
2023-04-13T09:37:01.201Z,7.70
2023-04-13T09:42:15.919Z,7.70
2023-04-13T09:47:19.701Z,7.20
2023-04-13T09:52:24.506Z,7.20
2023-04-13T09:57:32.708Z,6.50
2023-04-13T10:02:39.772Z,6.80
2023-04-13T10:07:47.591Z,7.00
2023-04-13T10:12:55.441Z,6.40
2023-04-13T10:18:23.902Z,6.40
2023-04-13T10:23:32.071Z,6.60
2023-04-13T10:29:02.727Z,5.60
2023-04-13T10:34:09.508Z,6.30
2023-04-13T10:39:28.229Z,6.40
2023-04-13T10:44:51.564Z,6.00
2023-04-13T10:49:54.879Z,6.90
2023-04-13T11:00:01.910Z,7.40
2023-04-13T11:05:06.057Z,6.30
2023-04-13T11:10:10.682Z,5.80
2023-04-13T11:15:20.907Z,4.90
2023-04-13T11:20:31.884Z,11.00
2023-04-13T11:25:35.362Z,5.70
2023-04-13T11:30:39.281Z,4.90
2023-04-13T11:35:49.923Z,5.10
2023-04-13T11:41:12.427Z,4.80
2023-04-13T11:46:27.332Z,4.70
2023-04-13T11:51:32.765Z,6.40
2023-04-13T11:56:36.280Z,5.90
2023-04-13T12:01:49.382Z,5.50
2023-04-13T12:06:54.047Z,5.10
2023-04-13T12:12:20.538Z,5.00
2023-04-13T12:22:54.838Z,4.50
2023-04-13T12:28:00.451Z,5.40
2023-04-13T12:33:04.208Z,4.90
2023-04-13T12:38:08.513Z,5.30
2023-04-13T12:43:12.112Z,5.10
2023-04-13T12:48:15.577Z,13.60
2023-04-13T12:53:19.061Z,4.20
2023-04-13T12:58:22.468Z,19.90
2023-04-13T13:03:26.344Z,4.80
2023-04-13T13:08:30.902Z,4.90
2023-04-13T13:13:36.396Z,5.20
2023-04-13T13:23:53.708Z,7.40
2023-04-13T13:28:57.394Z,6.20
2023-04-13T13:34:01.209Z,4.50
2023-04-13T13:39:05.951Z,24.70
2023-04-13T13:44:09.285Z,5.60
2023-04-13T13:49:12.886Z,5.40
2023-04-13T13:54:16.311Z,7.90
2023-04-13T13:59:19.765Z,4.30
2023-04-13T14:04:23.252Z,4.00
2023-04-13T14:09:28.077Z,4.50
2023-04-13T14:14:31.483Z,9.70
2023-04-13T14:19:34.997Z,9.50
2023-04-13T14:24:38.514Z,5.20
2023-04-13T14:29:42.599Z,5.50
2023-04-13T14:34:46.361Z,5.80
2023-04-13T14:39:51.591Z,5.80
2023-04-13T14:44:54.929Z,6.70
2023-04-13T14:49:58.550Z,4.70
2023-04-13T14:55:02.046Z,4.90
2023-04-13T15:00:21.872Z,4.50
2023-04-13T15:05:25.677Z,4.50
2023-04-13T15:10:30.536Z,5.50
2023-04-13T15:15:36.814Z,4.30
2023-04-13T15:20:40.237Z,5.30
2023-04-13T15:25:43.661Z,5.40
2023-04-13T15:30:47.258Z,4.60
2023-04-13T15:35:52.659Z,4.20
2023-04-13T15:40:56.274Z,5.90
2023-04-13T15:46:02.830Z,4.10
2023-04-13T15:51:06.179Z,3.30
2023-04-13T15:56:10.294Z,3.60
2023-04-13T16:01:14.020Z,13.10
2023-04-13T16:06:17.691Z,4.00
2023-04-13T16:11:21.217Z,10.10
2023-04-13T16:16:27.499Z,4.50
2023-04-13T16:21:31.016Z,3.50
2023-04-13T16:26:35.352Z,3.90
2023-04-13T16:31:38.710Z,5.10
2023-04-13T16:36:42.479Z,17.70
2023-04-13T16:41:46.117Z,12.50
2023-04-13T16:46:49.722Z,4.80
2023-04-13T16:51:53.436Z,4.50
2023-04-13T16:56:57.278Z,7.90
2023-04-13T17:02:00.796Z,13.50
2023-04-13T17:07:04.300Z,8.60
2023-04-13T17:12:07.805Z,10.00
2023-04-13T17:17:12.366Z,25.40
2023-04-13T17:22:15.758Z,8.40
2023-04-13T17:27:19.171Z,6.60
2023-04-13T17:32:22.586Z,18.30
2023-04-13T17:37:26.474Z,45.10
2023-04-13T17:42:30.032Z,15.90
2023-04-13T17:47:33.456Z,10.50
2023-04-13T17:52:37.358Z,15.30
2023-04-13T17:57:40.986Z,13.40
2023-04-13T18:02:44.739Z,8.80
2023-04-13T18:12:51.738Z,5.80
2023-04-13T18:17:55.330Z,5.70
2023-04-13T18:22:59.092Z,5.30
2023-04-13T18:28:02.602Z,4.80
2023-04-13T18:33:06.134Z,5.40
2023-04-13T18:38:10.344Z,5.30
2023-04-13T18:48:17.268Z,4.80
2023-04-13T18:53:22.220Z,12.50
2023-04-13T18:58:25.940Z,6.60
2023-04-13T19:03:29.671Z,5.70
2023-04-13T19:08:33.076Z,6.20
2023-04-13T19:13:36.584Z,5.30
2023-04-13T19:18:40.511Z,5.30
2023-04-13T19:23:43.827Z,5.30
2023-04-13T19:28:48.467Z,5.40
2023-04-13T19:33:53.003Z,9.80
2023-04-13T19:38:56.310Z,13.80
2023-04-13T19:44:01.270Z,17.40
2023-04-13T19:49:06.112Z,10.90
2023-04-13T19:54:09.636Z,9.90
2023-04-13T19:59:13.356Z,12.20
2023-04-13T20:04:16.944Z,13.30
2023-04-13T20:09:21.402Z,12.80
2023-04-13T20:14:26.112Z,8.60
2023-04-13T20:19:29.458Z,11.20
2023-04-13T20:24:32.939Z,5.60
2023-04-13T20:29:36.896Z,4.80
2023-04-13T20:34:40.700Z,5.20
2023-04-13T20:39:53.120Z,4.20
2023-04-13T20:44:57.757Z,5.20
2023-04-13T20:50:02.223Z,5.00
2023-04-13T21:00:15.439Z,5.10
2023-04-13T21:05:22.600Z,5.40
2023-04-13T21:10:26.324Z,6.00
2023-04-13T21:15:29.845Z,6.70
2023-04-13T21:20:33.352Z,6.00
2023-04-13T21:25:37.586Z,4.90
2023-04-13T21:30:40.998Z,5.20
2023-04-13T21:35:44.514Z,6.40
2023-04-13T21:40:48.025Z,6.00
2023-04-13T21:45:51.582Z,4.10
2023-04-13T21:50:55.368Z,3.80
2023-04-13T21:55:58.776Z,4.40
2023-04-13T22:01:02.229Z,2.40
2023-04-13T22:06:08.353Z,6.70
2023-04-13T22:11:12.196Z,5.50
2023-04-13T22:16:16.704Z,6.90
2023-04-13T22:21:20.970Z,5.40
2023-04-13T22:26:25.965Z,4.90
2023-04-13T22:31:29.483Z,5.30
2023-04-13T22:36:33.154Z,4.90
2023-04-13T22:41:36.768Z,5.10
2023-04-13T22:46:40.300Z,5.30
2023-04-13T22:51:44.211Z,6.30
2023-04-13T22:56:47.823Z,6.20
2023-04-13T23:01:51.611Z,6.40
2023-04-13T23:06:55.368Z,6.40
2023-04-13T23:11:59.087Z,6.70
2023-04-13T23:17:03.013Z,8.90
2023-04-13T23:22:06.427Z,3.80
2023-04-13T23:27:09.958Z,4.50
2023-04-13T23:32:13.733Z,5.10
2023-04-13T23:37:17.181Z,4.60
2023-04-13T23:42:20.591Z,4.50
2023-04-13T23:47:24.142Z,4.90
2023-04-13T23:52:27.625Z,4.40
2023-04-13T23:57:34.940Z,4.50
